sensor_id;sensor_type;location;lat;lon;timestamp;P1;durP1;ratioP1;P2;durP2;ratioP2
75932;SDS011;64803;52.356;5.310;2023-02-23T00:00:27;117.07;;;33.15;;
75932;SDS011;64803;52.356;5.310;2023-02-23T00:02:56;112.65;;;36.40;;
75932;SDS011;64803;52.356;5.310;2023-02-23T00:05:26;114.15;;;34.53;;
75932;SDS011;64803;52.356;5.310;2023-02-23T00:07:53;109.15;;;34.50;;
75932;SDS011;64803;52.356;5.310;2023-02-23T00:10:21;125.88;;;35.63;;
75932;SDS011;64803;52.356;5.310;2023-02-23T00:12:58;113.13;;;33.80;;
75932;SDS011;64803;52.356;5.310;2023-02-23T00:15:27;127.47;;;36.03;;
75932;SDS011;64803;52.356;5.310;2023-02-23T00:17:54;115.43;;;33.80;;
75932;SDS011;64803;52.356;5.310;2023-02-23T00:22:52;107.10;;;32.53;;
75932;SDS011;64803;52.356;5.310;2023-02-23T00:27:45;124.95;;;35.67;;
75932;SDS011;64803;52.356;5.310;2023-02-23T00:30:12;120.20;;;36.28;;
75932;SDS011;64803;52.356;5.310;2023-02-23T00:32:39;120.35;;;33.88;;
75932;SDS011;64803;52.356;5.310;2023-02-23T00:35:06;125.70;;;33.17;;
75932;SDS011;64803;52.356;5.310;2023-02-23T00:37:37;120.95;;;35.10;;
75932;SDS011;64803;52.356;5.310;2023-02-23T00:40:03;122.40;;;36.05;;
75932;SDS011;64803;52.356;5.310;2023-02-23T00:42:38;114.63;;;33.20;;
75932;SDS011;64803;52.356;5.310;2023-02-23T00:45:05;114.68;;;33.25;;
75932;SDS011;64803;52.356;5.310;2023-02-23T00:47:41;114.28;;;32.78;;
75932;SDS011;64803;52.356;5.310;2023-02-23T00:50:12;116.55;;;32.92;;
75932;SDS011;64803;52.356;5.310;2023-02-23T00:52:42;114.25;;;32.08;;
75932;SDS011;64803;52.356;5.310;2023-02-23T00:55:13;113.40;;;31.40;;
75932;SDS011;64803;52.356;5.310;2023-02-23T00:57:39;111.22;;;34.10;;
75932;SDS011;64803;52.356;5.310;2023-02-23T01:00:07;143.00;;;37.45;;
75932;SDS011;64803;52.356;5.310;2023-02-23T01:02:43;138.57;;;35.65;;
75932;SDS011;64803;52.356;5.310;2023-02-23T01:05:09;126.60;;;37.65;;
75932;SDS011;64803;52.356;5.310;2023-02-23T01:07:38;130.15;;;38.05;;
75932;SDS011;64803;52.356;5.310;2023-02-23T01:10:05;146.00;;;36.58;;
75932;SDS011;64803;52.356;5.310;2023-02-23T01:12:48;123.00;;;34.10;;
75932;SDS011;64803;52.356;5.310;2023-02-23T01:15:15;124.88;;;34.10;;
75932;SDS011;64803;52.356;5.310;2023-02-23T01:17:43;134.30;;;36.75;;
75932;SDS011;64803;52.356;5.310;2023-02-23T01:20:11;123.78;;;35.97;;
75932;SDS011;64803;52.356;5.310;2023-02-23T01:22:43;139.63;;;37.90;;
75932;SDS011;64803;52.356;5.310;2023-02-23T01:25:12;128.25;;;36.72;;
75932;SDS011;64803;52.356;5.310;2023-02-23T01:27:39;120.65;;;33.60;;
75932;SDS011;64803;52.356;5.310;2023-02-23T01:30:08;118.10;;;35.67;;
75932;SDS011;64803;52.356;5.310;2023-02-23T01:32:36;126.80;;;36.13;;
75932;SDS011;64803;52.356;5.310;2023-02-23T01:35:08;128.73;;;36.42;;
75932;SDS011;64803;52.356;5.310;2023-02-23T01:37:36;120.07;;;33.25;;
75932;SDS011;64803;52.356;5.310;2023-02-23T01:42:40;127.80;;;35.20;;
75932;SDS011;64803;52.356;5.310;2023-02-23T01:45:23;131.63;;;36.67;;
75932;SDS011;64803;52.356;5.310;2023-02-23T01:47:51;121.72;;;34.97;;
75932;SDS011;64803;52.356;5.310;2023-02-23T01:50:20;131.32;;;34.70;;
75932;SDS011;64803;52.356;5.310;2023-02-23T01:52:50;115.20;;;34.42;;
75932;SDS011;64803;52.356;5.310;2023-02-23T01:55:17;110.72;;;33.13;;
75932;SDS011;64803;52.356;5.310;2023-02-23T01:57:50;104.45;;;32.72;;
75932;SDS011;64803;52.356;5.310;2023-02-23T02:00:21;109.75;;;32.35;;
75932;SDS011;64803;52.356;5.310;2023-02-23T02:02:51;109.50;;;34.08;;
75932;SDS011;64803;52.356;5.310;2023-02-23T02:05:19;107.22;;;32.22;;
75932;SDS011;64803;52.356;5.310;2023-02-23T02:07:48;107.40;;;32.83;;
75932;SDS011;64803;52.356;5.310;2023-02-23T02:10:24;113.75;;;32.95;;
75932;SDS011;64803;52.356;5.310;2023-02-23T02:13:04;109.78;;;32.25;;
75932;SDS011;64803;52.356;5.310;2023-02-23T02:15:35;90.82;;;28.88;;
75932;SDS011;64803;52.356;5.310;2023-02-23T02:42:57;90.18;;;28.52;;
75932;SDS011;64803;52.356;5.310;2023-02-23T02:51:29;95.50;;;29.58;;
75932;SDS011;64803;52.356;5.310;2023-02-23T02:54:08;89.28;;;28.50;;
75932;SDS011;64803;52.356;5.310;2023-02-23T02:56:50;91.05;;;26.35;;
75932;SDS011;64803;52.356;5.310;2023-02-23T02:59:22;98.53;;;28.27;;
75932;SDS011;64803;52.356;5.310;2023-02-23T03:02:15;81.20;;;26.27;;
75932;SDS011;64803;52.356;5.310;2023-02-23T03:05:23;95.95;;;29.38;;
75932;SDS011;64803;52.356;5.310;2023-02-23T03:11:11;102.10;;;27.95;;
75932;SDS011;64803;52.356;5.310;2023-02-23T03:26:12;94.35;;;28.60;;
75932;SDS011;64803;52.356;5.310;2023-02-23T03:29:06;117.00;;;32.10;;
75932;SDS011;64803;52.356;5.310;2023-02-23T03:35:07;113.45;;;31.05;;
75932;SDS011;64803;52.356;5.310;2023-02-23T03:38:17;110.45;;;31.13;;
75932;SDS011;64803;52.356;5.310;2023-02-23T03:41:10;103.60;;;31.92;;
75932;SDS011;64803;52.356;5.310;2023-02-23T03:43:59;105.97;;;30.80;;
75932;SDS011;64803;52.356;5.310;2023-02-23T03:46:48;115.88;;;32.35;;
75932;SDS011;64803;52.356;5.310;2023-02-23T03:49:35;121.55;;;35.20;;
75932;SDS011;64803;52.356;5.310;2023-02-23T03:52:25;108.85;;;31.02;;
75932;SDS011;64803;52.356;5.310;2023-02-23T03:55:17;116.40;;;30.35;;
75932;SDS011;64803;52.356;5.310;2023-02-23T03:58:11;108.63;;;33.33;;
75932;SDS011;64803;52.356;5.310;2023-02-23T04:01:00;106.97;;;33.22;;
75932;SDS011;64803;52.356;5.310;2023-02-23T04:03:47;110.93;;;32.13;;
75932;SDS011;64803;52.356;5.310;2023-02-23T04:06:37;116.28;;;32.72;;
75932;SDS011;64803;52.356;5.310;2023-02-23T04:09:27;112.10;;;30.85;;
75932;SDS011;64803;52.356;5.310;2023-02-23T04:12:18;124.47;;;32.50;;
75932;SDS011;64803;52.356;5.310;2023-02-23T04:17:39;111.28;;;31.42;;
75932;SDS011;64803;52.356;5.310;2023-02-23T04:20:07;108.40;;;30.55;;
75932;SDS011;64803;52.356;5.310;2023-02-23T04:22:37;108.57;;;29.73;;
75932;SDS011;64803;52.356;5.310;2023-02-23T04:25:03;102.60;;;30.63;;
75932;SDS011;64803;52.356;5.310;2023-02-23T04:27:34;107.38;;;32.97;;
75932;SDS011;64803;52.356;5.310;2023-02-23T04:30:00;110.13;;;32.60;;
75932;SDS011;64803;52.356;5.310;2023-02-23T04:32:28;102.30;;;29.80;;
75932;SDS011;64803;52.356;5.310;2023-02-23T04:34:55;110.55;;;32.03;;
75932;SDS011;64803;52.356;5.310;2023-02-23T04:37:21;99.57;;;28.52;;
75932;SDS011;64803;52.356;5.310;2023-02-23T04:39:47;111.18;;;30.52;;
75932;SDS011;64803;52.356;5.310;2023-02-23T04:42:15;104.25;;;30.00;;
75932;SDS011;64803;52.356;5.310;2023-02-23T04:44:42;106.18;;;29.48;;
75932;SDS011;64803;52.356;5.310;2023-02-23T04:47:08;103.57;;;30.00;;
75932;SDS011;64803;52.356;5.310;2023-02-23T04:49:34;101.68;;;28.83;;
75932;SDS011;64803;52.356;5.310;2023-02-23T04:52:00;100.60;;;29.17;;
75932;SDS011;64803;52.356;5.310;2023-02-23T04:54:26;101.70;;;28.50;;
75932;SDS011;64803;52.356;5.310;2023-02-23T04:56:52;96.13;;;29.20;;
75932;SDS011;64803;52.356;5.310;2023-02-23T04:59:18;99.47;;;27.85;;
75932;SDS011;64803;52.356;5.310;2023-02-23T05:01:44;98.50;;;27.52;;
75932;SDS011;64803;52.356;5.310;2023-02-23T05:04:10;96.32;;;28.75;;
75932;SDS011;64803;52.356;5.310;2023-02-23T05:06:36;99.68;;;28.50;;
75932;SDS011;64803;52.356;5.310;2023-02-23T05:09:03;97.28;;;28.00;;
75932;SDS011;64803;52.356;5.310;2023-02-23T05:11:31;97.05;;;27.92;;
75932;SDS011;64803;52.356;5.310;2023-02-23T05:13:57;87.43;;;25.33;;
75932;SDS011;64803;52.356;5.310;2023-02-23T05:16:23;90.35;;;26.35;;
75932;SDS011;64803;52.356;5.310;2023-02-23T05:18:49;99.07;;;27.83;;
75932;SDS011;64803;52.356;5.310;2023-02-23T05:21:15;87.13;;;26.33;;
75932;SDS011;64803;52.356;5.310;2023-02-23T05:23:41;80.60;;;24.73;;
75932;SDS011;64803;52.356;5.310;2023-02-23T05:26:09;79.30;;;24.23;;
75932;SDS011;64803;52.356;5.310;2023-02-23T05:28:37;91.38;;;25.92;;
75932;SDS011;64803;52.356;5.310;2023-02-23T05:31:05;91.78;;;25.70;;
75932;SDS011;64803;52.356;5.310;2023-02-23T05:33:31;92.22;;;26.15;;
75932;SDS011;64803;52.356;5.310;2023-02-23T05:35:58;84.60;;;26.08;;
75932;SDS011;64803;52.356;5.310;2023-02-23T05:38:24;88.35;;;24.90;;
75932;SDS011;64803;52.356;5.310;2023-02-23T05:40:51;80.32;;;24.33;;
75932;SDS011;64803;52.356;5.310;2023-02-23T05:43:18;80.03;;;22.88;;
75932;SDS011;64803;52.356;5.310;2023-02-23T05:45:44;85.65;;;25.45;;
75932;SDS011;64803;52.356;5.310;2023-02-23T05:48:10;75.07;;;20.20;;
75932;SDS011;64803;52.356;5.310;2023-02-23T05:50:37;86.68;;;25.63;;
75932;SDS011;64803;52.356;5.310;2023-02-23T05:53:03;83.10;;;23.17;;
75932;SDS011;64803;52.356;5.310;2023-02-23T05:55:30;77.72;;;24.15;;
75932;SDS011;64803;52.356;5.310;2023-02-23T05:57:56;82.22;;;23.77;;
75932;SDS011;64803;52.356;5.310;2023-02-23T06:00:22;80.93;;;24.02;;
75932;SDS011;64803;52.356;5.310;2023-02-23T06:02:48;76.38;;;25.35;;
75932;SDS011;64803;52.356;5.310;2023-02-23T06:05:17;81.35;;;23.17;;
75932;SDS011;64803;52.356;5.310;2023-02-23T06:07:43;81.97;;;22.30;;
75932;SDS011;64803;52.356;5.310;2023-02-23T06:10:09;86.03;;;24.67;;
75932;SDS011;64803;52.356;5.310;2023-02-23T06:12:36;81.05;;;24.45;;
75932;SDS011;64803;52.356;5.310;2023-02-23T06:15:02;92.78;;;24.67;;
75932;SDS011;64803;52.356;5.310;2023-02-23T06:17:28;89.47;;;24.00;;
75932;SDS011;64803;52.356;5.310;2023-02-23T06:19:54;94.40;;;25.00;;
75932;SDS011;64803;52.356;5.310;2023-02-23T06:22:20;84.95;;;24.42;;
75932;SDS011;64803;52.356;5.310;2023-02-23T06:24:46;93.60;;;24.95;;
75932;SDS011;64803;52.356;5.310;2023-02-23T06:27:12;87.10;;;24.20;;
75932;SDS011;64803;52.356;5.310;2023-02-23T06:29:38;81.55;;;22.92;;
75932;SDS011;64803;52.356;5.310;2023-02-23T06:32:04;81.93;;;23.23;;
75932;SDS011;64803;52.356;5.310;2023-02-23T06:34:30;84.55;;;24.60;;
75932;SDS011;64803;52.356;5.310;2023-02-23T06:36:58;82.80;;;24.52;;
75932;SDS011;64803;52.356;5.310;2023-02-23T06:39:24;88.05;;;24.65;;
75932;SDS011;64803;52.356;5.310;2023-02-23T06:41:50;86.28;;;24.25;;
75932;SDS011;64803;52.356;5.310;2023-02-23T06:44:16;80.25;;;23.73;;
75932;SDS011;64803;52.356;5.310;2023-02-23T06:46:42;86.55;;;23.45;;
75932;SDS011;64803;52.356;5.310;2023-02-23T06:49:09;84.45;;;23.45;;
75932;SDS011;64803;52.356;5.310;2023-02-23T06:51:36;84.28;;;23.60;;
75932;SDS011;64803;52.356;5.310;2023-02-23T06:54:02;86.57;;;23.58;;
75932;SDS011;64803;52.356;5.310;2023-02-23T06:56:28;76.75;;;22.23;;
75932;SDS011;64803;52.356;5.310;2023-02-23T06:58:54;75.95;;;20.48;;
75932;SDS011;64803;52.356;5.310;2023-02-23T07:01:20;98.00;;;23.60;;
75932;SDS011;64803;52.356;5.310;2023-02-23T07:03:46;98.38;;;23.60;;
75932;SDS011;64803;52.356;5.310;2023-02-23T07:06:13;86.88;;;23.13;;
75932;SDS011;64803;52.356;5.310;2023-02-23T07:08:39;74.45;;;21.40;;
75932;SDS011;64803;52.356;5.310;2023-02-23T07:11:06;85.22;;;22.23;;
75932;SDS011;64803;52.356;5.310;2023-02-23T07:13:43;91.70;;;24.38;;
75932;SDS011;64803;52.356;5.310;2023-02-23T07:16:09;89.88;;;24.25;;
75932;SDS011;64803;52.356;5.310;2023-02-23T07:18:36;90.82;;;24.58;;
75932;SDS011;64803;52.356;5.310;2023-02-23T07:21:02;103.40;;;26.20;;
75932;SDS011;64803;52.356;5.310;2023-02-23T07:23:28;92.50;;;24.05;;
75932;SDS011;64803;52.356;5.310;2023-02-23T07:25:54;95.00;;;25.65;;
75932;SDS011;64803;52.356;5.310;2023-02-23T07:28:24;86.22;;;23.98;;
75932;SDS011;64803;52.356;5.310;2023-02-23T07:30:54;78.75;;;22.67;;
75932;SDS011;64803;52.356;5.310;2023-02-23T07:33:20;86.13;;;22.50;;
75932;SDS011;64803;52.356;5.310;2023-02-23T07:35:47;93.30;;;25.52;;
75932;SDS011;64803;52.356;5.310;2023-02-23T07:38:14;85.15;;;22.55;;
75932;SDS011;64803;52.356;5.310;2023-02-23T07:40:40;98.72;;;22.80;;
75932;SDS011;64803;52.356;5.310;2023-02-23T07:43:06;81.95;;;22.10;;
75932;SDS011;64803;52.356;5.310;2023-02-23T07:45:33;87.22;;;23.02;;
75932;SDS011;64803;52.356;5.310;2023-02-23T07:47:59;90.63;;;22.45;;
75932;SDS011;64803;52.356;5.310;2023-02-23T07:50:25;65.95;;;18.90;;
75932;SDS011;64803;52.356;5.310;2023-02-23T07:52:51;83.63;;;20.00;;
75932;SDS011;64803;52.356;5.310;2023-02-23T07:55:17;95.25;;;22.77;;
75932;SDS011;64803;52.356;5.310;2023-02-23T07:57:43;93.80;;;22.77;;
75932;SDS011;64803;52.356;5.310;2023-02-23T08:00:12;83.25;;;23.95;;
75932;SDS011;64803;52.356;5.310;2023-02-23T08:02:41;67.68;;;16.08;;
75932;SDS011;64803;52.356;5.310;2023-02-23T08:05:07;80.65;;;22.58;;
75932;SDS011;64803;52.356;5.310;2023-02-23T08:07:33;80.97;;;19.80;;
75932;SDS011;64803;52.356;5.310;2023-02-23T08:09:59;79.35;;;20.63;;
75932;SDS011;64803;52.356;5.310;2023-02-23T08:12:25;88.55;;;22.80;;
75932;SDS011;64803;52.356;5.310;2023-02-23T08:14:51;84.25;;;17.58;;
75932;SDS011;64803;52.356;5.310;2023-02-23T08:17:18;69.50;;;19.40;;
75932;SDS011;64803;52.356;5.310;2023-02-23T08:19:44;85.88;;;21.90;;
75932;SDS011;64803;52.356;5.310;2023-02-23T08:22:10;52.90;;;14.30;;
75932;SDS011;64803;52.356;5.310;2023-02-23T08:24:36;55.60;;;15.15;;
75932;SDS011;64803;52.356;5.310;2023-02-23T08:27:02;54.70;;;15.40;;
75932;SDS011;64803;52.356;5.310;2023-02-23T08:29:29;45.50;;;13.30;;
75932;SDS011;64803;52.356;5.310;2023-02-23T08:31:55;72.45;;;19.98;;
75932;SDS011;64803;52.356;5.310;2023-02-23T08:34:22;62.10;;;16.92;;
75932;SDS011;64803;52.356;5.310;2023-02-23T08:36:49;63.38;;;16.83;;
75932;SDS011;64803;52.356;5.310;2023-02-23T08:39:15;74.78;;;18.85;;
75932;SDS011;64803;52.356;5.310;2023-02-23T08:41:41;57.30;;;17.23;;
75932;SDS011;64803;52.356;5.310;2023-02-23T08:44:07;63.67;;;16.08;;
75932;SDS011;64803;52.356;5.310;2023-02-23T08:46:33;69.22;;;17.55;;
75932;SDS011;64803;52.356;5.310;2023-02-23T08:48:59;58.22;;;15.73;;
75932;SDS011;64803;52.356;5.310;2023-02-23T08:51:25;58.60;;;14.43;;
75932;SDS011;64803;52.356;5.310;2023-02-23T08:53:51;58.63;;;15.00;;
75932;SDS011;64803;52.356;5.310;2023-02-23T08:56:17;47.13;;;13.00;;
75932;SDS011;64803;52.356;5.310;2023-02-23T08:58:43;62.22;;;17.38;;
75932;SDS011;64803;52.356;5.310;2023-02-23T09:01:16;41.85;;;11.80;;
75932;SDS011;64803;52.356;5.310;2023-02-23T09:03:44;57.22;;;15.00;;
75932;SDS011;64803;52.356;5.310;2023-02-23T09:06:12;52.65;;;13.20;;
75932;SDS011;64803;52.356;5.310;2023-02-23T09:08:40;44.15;;;11.73;;
75932;SDS011;64803;52.356;5.310;2023-02-23T09:11:06;54.67;;;11.60;;
75932;SDS011;64803;52.356;5.310;2023-02-23T09:13:32;41.40;;;11.77;;
75932;SDS011;64803;52.356;5.310;2023-02-23T09:15:58;56.00;;;14.95;;
75932;SDS011;64803;52.356;5.310;2023-02-23T09:18:24;43.42;;;12.65;;
75932;SDS011;64803;52.356;5.310;2023-02-23T09:20:54;35.83;;;8.77;;
75932;SDS011;64803;52.356;5.310;2023-02-23T09:23:20;42.28;;;13.30;;
75932;SDS011;64803;52.356;5.310;2023-02-23T09:25:46;48.05;;;12.55;;
75932;SDS011;64803;52.356;5.310;2023-02-23T09:28:12;40.47;;;12.25;;
75932;SDS011;64803;52.356;5.310;2023-02-23T09:33:09;27.35;;;8.02;;
75932;SDS011;64803;52.356;5.310;2023-02-23T09:35:36;46.75;;;12.65;;
75932;SDS011;64803;52.356;5.310;2023-02-23T09:38:02;47.50;;;12.10;;
75932;SDS011;64803;52.356;5.310;2023-02-23T09:40:44;45.33;;;13.10;;
75932;SDS011;64803;52.356;5.310;2023-02-23T09:43:19;26.67;;;8.18;;
75932;SDS011;64803;52.356;5.310;2023-02-23T09:48:47;38.65;;;12.23;;
75932;SDS011;64803;52.356;5.310;2023-02-23T09:51:17;45.63;;;13.07;;
75932;SDS011;64803;52.356;5.310;2023-02-23T09:53:49;33.38;;;11.38;;
75932;SDS011;64803;52.356;5.310;2023-02-23T09:58:53;32.30;;;9.55;;
75932;SDS011;64803;52.356;5.310;2023-02-23T10:09:46;31.98;;;10.32;;
75932;SDS011;64803;52.356;5.310;2023-02-23T10:12:18;40.95;;;12.55;;
75932;SDS011;64803;52.356;5.310;2023-02-23T10:14:59;42.40;;;12.68;;
75932;SDS011;64803;52.356;5.310;2023-02-23T10:22:26;30.27;;;7.90;;
75932;SDS011;64803;52.356;5.310;2023-02-23T10:27:41;45.28;;;11.82;;
75932;SDS011;64803;52.356;5.310;2023-02-23T10:35:45;26.77;;;10.13;;
75932;SDS011;64803;52.356;5.310;2023-02-23T10:38:13;40.58;;;11.73;;
75932;SDS011;64803;52.356;5.310;2023-02-23T10:40:41;39.35;;;10.27;;
75932;SDS011;64803;52.356;5.310;2023-02-23T10:43:09;31.60;;;9.88;;
75932;SDS011;64803;52.356;5.310;2023-02-23T10:45:40;40.38;;;11.77;;
75932;SDS011;64803;52.356;5.310;2023-02-23T10:48:49;38.35;;;12.35;;
75932;SDS011;64803;52.356;5.310;2023-02-23T10:51:24;37.45;;;11.50;;
75932;SDS011;64803;52.356;5.310;2023-02-23T10:53:54;45.20;;;11.57;;
75932;SDS011;64803;52.356;5.310;2023-02-23T10:56:20;49.40;;;13.65;;
75932;SDS011;64803;52.356;5.310;2023-02-23T10:58:51;40.53;;;11.18;;
75932;SDS011;64803;52.356;5.310;2023-02-23T11:04:17;34.72;;;10.00;;
75932;SDS011;64803;52.356;5.310;2023-02-23T11:06:47;47.17;;;12.50;;
75932;SDS011;64803;52.356;5.310;2023-02-23T11:09:21;40.22;;;12.27;;
75932;SDS011;64803;52.356;5.310;2023-02-23T11:11:56;36.88;;;12.75;;
75932;SDS011;64803;52.356;5.310;2023-02-23T11:14:28;44.42;;;12.85;;
75932;SDS011;64803;52.356;5.310;2023-02-23T11:16:56;40.85;;;11.38;;
75932;SDS011;64803;52.356;5.310;2023-02-23T11:22:04;36.50;;;10.43;;
75932;SDS011;64803;52.356;5.310;2023-02-23T11:24:35;42.90;;;12.77;;
75932;SDS011;64803;52.356;5.310;2023-02-23T11:27:06;36.13;;;11.93;;
75932;SDS011;64803;52.356;5.310;2023-02-23T11:29:45;26.60;;;9.65;;
75932;SDS011;64803;52.356;5.310;2023-02-23T11:32:16;32.85;;;10.43;;
75932;SDS011;64803;52.356;5.310;2023-02-23T11:34:46;18.42;;;7.13;;
75932;SDS011;64803;52.356;5.310;2023-02-23T11:39:49;30.80;;;10.18;;
75932;SDS011;64803;52.356;5.310;2023-02-23T11:42:30;35.03;;;11.05;;
75932;SDS011;64803;52.356;5.310;2023-02-23T11:45:16;42.30;;;12.55;;
75932;SDS011;64803;52.356;5.310;2023-02-23T11:47:46;21.65;;;9.60;;
75932;SDS011;64803;52.356;5.310;2023-02-23T11:50:30;31.50;;;10.38;;
75932;SDS011;64803;52.356;5.310;2023-02-23T11:53:11;44.55;;;13.15;;
75932;SDS011;64803;52.356;5.310;2023-02-23T11:55:43;45.22;;;12.35;;
75932;SDS011;64803;52.356;5.310;2023-02-23T12:00:53;40.10;;;11.43;;
75932;SDS011;64803;52.356;5.310;2023-02-23T12:03:21;43.70;;;11.75;;
75932;SDS011;64803;52.356;5.310;2023-02-23T12:05:51;35.22;;;11.55;;
75932;SDS011;64803;52.356;5.310;2023-02-23T12:08:43;32.42;;;10.48;;
75932;SDS011;64803;52.356;5.310;2023-02-23T12:11:11;40.10;;;12.18;;
75932;SDS011;64803;52.356;5.310;2023-02-23T12:13:44;35.47;;;10.38;;
75932;SDS011;64803;52.356;5.310;2023-02-23T12:18:45;38.00;;;11.02;;
75932;SDS011;64803;52.356;5.310;2023-02-23T12:24:13;37.65;;;10.82;;
75932;SDS011;64803;52.356;5.310;2023-02-23T12:26:49;36.10;;;11.23;;
75932;SDS011;64803;52.356;5.310;2023-02-23T12:29:27;28.50;;;8.88;;
75932;SDS011;64803;52.356;5.310;2023-02-23T12:32:11;41.50;;;12.55;;
75932;SDS011;64803;52.356;5.310;2023-02-23T12:34:50;36.28;;;10.65;;
75932;SDS011;64803;52.356;5.310;2023-02-23T12:40:20;27.33;;;9.32;;
75932;SDS011;64803;52.356;5.310;2023-02-23T12:42:59;29.05;;;9.30;;
75932;SDS011;64803;52.356;5.310;2023-02-23T12:48:01;23.45;;;8.02;;
75932;SDS011;64803;52.356;5.310;2023-02-23T12:50:41;24.88;;;8.15;;
75932;SDS011;64803;52.356;5.310;2023-02-23T12:53:25;19.98;;;7.47;;
75932;SDS011;64803;52.356;5.310;2023-02-23T13:01:35;31.83;;;9.32;;
75932;SDS011;64803;52.356;5.310;2023-02-23T13:04:25;32.83;;;10.15;;
75932;SDS011;64803;52.356;5.310;2023-02-23T13:10:11;27.73;;;8.00;;
75932;SDS011;64803;52.356;5.310;2023-02-23T13:22:56;28.48;;;9.38;;
75932;SDS011;64803;52.356;5.310;2023-02-23T13:28:03;39.08;;;10.60;;
75932;SDS011;64803;52.356;5.310;2023-02-23T13:30:31;35.40;;;10.45;;
75932;SDS011;64803;52.356;5.310;2023-02-23T13:33:07;28.60;;;10.10;;
75932;SDS011;64803;52.356;5.310;2023-02-23T13:35:43;44.00;;;10.98;;
75932;SDS011;64803;52.356;5.310;2023-02-23T13:43:40;41.20;;;13.32;;
75932;SDS011;64803;52.356;5.310;2023-02-23T13:46:16;38.75;;;11.25;;
75932;SDS011;64803;52.356;5.310;2023-02-23T13:48:54;55.85;;;15.35;;
75932;SDS011;64803;52.356;5.310;2023-02-23T13:51:38;42.95;;;14.70;;
75932;SDS011;64803;52.356;5.310;2023-02-23T13:56:49;46.50;;;14.80;;
75932;SDS011;64803;52.356;5.310;2023-02-23T13:59:25;53.95;;;16.65;;
75932;SDS011;64803;52.356;5.310;2023-02-23T14:01:54;49.15;;;15.18;;
75932;SDS011;64803;52.356;5.310;2023-02-23T14:04:25;76.05;;;20.38;;
75932;SDS011;64803;52.356;5.310;2023-02-23T14:06:54;69.18;;;17.90;;
75932;SDS011;64803;52.356;5.310;2023-02-23T14:09:27;57.97;;;18.40;;
75932;SDS011;64803;52.356;5.310;2023-02-23T14:12:01;54.47;;;14.60;;
75932;SDS011;64803;52.356;5.310;2023-02-23T14:22:13;11.10;;;2.47;;
75932;SDS011;64803;52.356;5.310;2023-02-23T14:24:43;28.42;;;3.65;;
75932;SDS011;64803;52.356;5.310;2023-02-23T14:27:19;14.50;;;2.85;;
75932;SDS011;64803;52.356;5.310;2023-02-23T14:32:43;34.38;;;3.50;;
75932;SDS011;64803;52.356;5.310;2023-02-23T14:37:59;25.17;;;3.25;;
75932;SDS011;64803;52.356;5.310;2023-02-23T14:40:33;17.77;;;2.80;;
75932;SDS011;64803;52.356;5.310;2023-02-23T14:43:21;27.52;;;4.18;;
75932;SDS011;64803;52.356;5.310;2023-02-23T14:45:55;32.25;;;4.35;;
75932;SDS011;64803;52.356;5.310;2023-02-23T14:48:21;22.95;;;4.05;;
75932;SDS011;64803;52.356;5.310;2023-02-23T14:50:48;24.83;;;3.95;;
75932;SDS011;64803;52.356;5.310;2023-02-23T14:53:18;22.92;;;3.63;;
75932;SDS011;64803;52.356;5.310;2023-02-23T14:55:47;28.55;;;4.22;;
75932;SDS011;64803;52.356;5.310;2023-02-23T15:00:47;31.08;;;4.07;;
75932;SDS011;64803;52.356;5.310;2023-02-23T15:03:16;19.13;;;4.25;;
75932;SDS011;64803;52.356;5.310;2023-02-23T15:05:46;20.50;;;3.65;;
75932;SDS011;64803;52.356;5.310;2023-02-23T15:08:18;26.85;;;3.50;;
75932;SDS011;64803;52.356;5.310;2023-02-23T15:11:02;20.95;;;3.45;;
75932;SDS011;64803;52.356;5.310;2023-02-23T15:13:36;33.55;;;4.47;;
75932;SDS011;64803;52.356;5.310;2023-02-23T15:16:06;26.48;;;3.72;;
75932;SDS011;64803;52.356;5.310;2023-02-23T15:18:40;33.80;;;4.75;;
75932;SDS011;64803;52.356;5.310;2023-02-23T15:21:12;20.27;;;3.60;;
75932;SDS011;64803;52.356;5.310;2023-02-23T15:23:43;20.58;;;5.20;;
75932;SDS011;64803;52.356;5.310;2023-02-23T15:26:25;31.05;;;3.88;;
75932;SDS011;64803;52.356;5.310;2023-02-23T15:29:10;25.08;;;4.00;;
75932;SDS011;64803;52.356;5.310;2023-02-23T15:31:40;18.52;;;2.13;;
75932;SDS011;64803;52.356;5.310;2023-02-23T15:34:21;25.30;;;3.67;;
75932;SDS011;64803;52.356;5.310;2023-02-23T15:36:52;34.05;;;4.55;;
75932;SDS011;64803;52.356;5.310;2023-02-23T15:39:30;30.83;;;4.47;;
75932;SDS011;64803;52.356;5.310;2023-02-23T15:42:00;21.98;;;3.13;;
75932;SDS011;64803;52.356;5.310;2023-02-23T15:44:27;31.73;;;4.18;;
75932;SDS011;64803;52.356;5.310;2023-02-23T15:46:58;23.40;;;3.80;;
75932;SDS011;64803;52.356;5.310;2023-02-23T15:49:31;36.85;;;4.95;;
75932;SDS011;64803;52.356;5.310;2023-02-23T15:52:17;35.20;;;3.65;;
75932;SDS011;64803;52.356;5.310;2023-02-23T15:54:49;27.98;;;4.57;;
75932;SDS011;64803;52.356;5.310;2023-02-23T15:57:32;27.77;;;3.70;;
75932;SDS011;64803;52.356;5.310;2023-02-23T16:00:00;31.77;;;4.55;;
75932;SDS011;64803;52.356;5.310;2023-02-23T16:02:35;20.50;;;3.28;;
75932;SDS011;64803;52.356;5.310;2023-02-23T16:05:07;10.68;;;2.38;;
75932;SDS011;64803;52.356;5.310;2023-02-23T16:07:44;37.65;;;3.17;;
75932;SDS011;64803;52.356;5.310;2023-02-23T16:10:18;22.65;;;3.20;;
75932;SDS011;64803;52.356;5.310;2023-02-23T16:12:48;25.58;;;3.28;;
75932;SDS011;64803;52.356;5.310;2023-02-23T16:17:59;21.13;;;3.05;;
75932;SDS011;64803;52.356;5.310;2023-02-23T16:23:06;17.40;;;2.95;;
75932;SDS011;64803;52.356;5.310;2023-02-23T16:26:00;16.33;;;3.03;;
75932;SDS011;64803;52.356;5.310;2023-02-23T16:28:32;16.35;;;2.45;;
75932;SDS011;64803;52.356;5.310;2023-02-23T16:31:00;22.10;;;4.18;;
75932;SDS011;64803;52.356;5.310;2023-02-23T16:33:30;17.45;;;3.33;;
75932;SDS011;64803;52.356;5.310;2023-02-23T16:41:11;33.50;;;5.30;;
75932;SDS011;64803;52.356;5.310;2023-02-23T16:43:46;27.20;;;4.93;;
75932;SDS011;64803;52.356;5.310;2023-02-23T16:46:15;23.42;;;3.35;;
75932;SDS011;64803;52.356;5.310;2023-02-23T16:48:41;16.25;;;2.85;;
75932;SDS011;64803;52.356;5.310;2023-02-23T16:51:12;22.50;;;3.25;;
75932;SDS011;64803;52.356;5.310;2023-02-23T16:53:48;29.48;;;4.00;;
75932;SDS011;64803;52.356;5.310;2023-02-23T16:56:15;22.55;;;3.50;;
75932;SDS011;64803;52.356;5.310;2023-02-23T16:58:44;15.77;;;2.60;;
75932;SDS011;64803;52.356;5.310;2023-02-23T17:01:13;18.70;;;2.17;;
75932;SDS011;64803;52.356;5.310;2023-02-23T17:03:41;13.60;;;2.35;;
75932;SDS011;64803;52.356;5.310;2023-02-23T17:06:08;16.77;;;2.08;;
75932;SDS011;64803;52.356;5.310;2023-02-23T17:08:33;18.08;;;2.70;;
75932;SDS011;64803;52.356;5.310;2023-02-23T17:11:00;13.32;;;1.75;;
75932;SDS011;64803;52.356;5.310;2023-02-23T17:15:57;7.53;;;1.35;;
75932;SDS011;64803;52.356;5.310;2023-02-23T17:18:26;11.27;;;1.83;;
75932;SDS011;64803;52.356;5.310;2023-02-23T17:20:54;14.50;;;2.20;;
75932;SDS011;64803;52.356;5.310;2023-02-23T17:23:21;17.92;;;2.42;;
75932;SDS011;64803;52.356;5.310;2023-02-23T17:25:51;9.75;;;2.33;;
75932;SDS011;64803;52.356;5.310;2023-02-23T17:28:18;16.88;;;2.03;;
75932;SDS011;64803;52.356;5.310;2023-02-23T17:30:44;15.40;;;2.55;;
75932;SDS011;64803;52.356;5.310;2023-02-23T17:33:12;12.52;;;1.83;;